sensor_id;sensor_type;location;lat;lon;timestamp;P1;durP1;ratioP1;P2;durP2;ratioP2
22144;SDS011;11238;48.730;11.566;2024-03-22T00:00:47;27.27;;;12.98;;
22144;SDS011;11238;48.730;11.566;2024-03-22T00:03:13;20.40;;;11.43;;
22144;SDS011;11238;48.730;11.566;2024-03-22T00:05:38;23.02;;;11.65;;
22144;SDS011;11238;48.730;11.566;2024-03-22T00:08:04;25.20;;;12.90;;
22144;SDS011;11238;48.730;11.566;2024-03-22T00:10:30;24.45;;;13.23;;
22144;SDS011;11238;48.730;11.566;2024-03-22T00:12:56;20.83;;;11.73;;
22144;SDS011;11238;48.730;11.566;2024-03-22T00:15:21;20.20;;;11.23;;
22144;SDS011;11238;48.730;11.566;2024-03-22T00:17:47;19.30;;;10.77;;
22144;SDS011;11238;48.730;11.566;2024-03-22T00:20:13;21.35;;;10.48;;
22144;SDS011;11238;48.730;11.566;2024-03-22T00:22:39;20.67;;;11.30;;
22144;SDS011;11238;48.730;11.566;2024-03-22T00:25:05;18.50;;;10.00;;
22144;SDS011;11238;48.730;11.566;2024-03-22T00:27:31;17.63;;;10.07;;
22144;SDS011;11238;48.730;11.566;2024-03-22T00:29:57;20.50;;;10.77;;
22144;SDS011;11238;48.730;11.566;2024-03-22T00:32:23;24.60;;;12.43;;
22144;SDS011;11238;48.730;11.566;2024-03-22T00:34:49;23.92;;;12.45;;
22144;SDS011;11238;48.730;11.566;2024-03-22T00:37:15;22.65;;;12.10;;
22144;SDS011;11238;48.730;11.566;2024-03-22T00:39:40;22.67;;;11.98;;
22144;SDS011;11238;48.730;11.566;2024-03-22T00:42:06;21.98;;;12.40;;
22144;SDS011;11238;48.730;11.566;2024-03-22T00:44:32;26.15;;;12.20;;
22144;SDS011;11238;48.730;11.566;2024-03-22T00:46:58;32.47;;;14.98;;
22144;SDS011;11238;48.730;11.566;2024-03-22T00:49:24;28.70;;;14.05;;
22144;SDS011;11238;48.730;11.566;2024-03-22T00:51:50;26.92;;;13.98;;
22144;SDS011;11238;48.730;11.566;2024-03-22T00:54:16;31.63;;;15.02;;
22144;SDS011;11238;48.730;11.566;2024-03-22T00:56:43;31.17;;;14.27;;
22144;SDS011;11238;48.730;11.566;2024-03-22T00:59:09;27.58;;;13.68;;
22144;SDS011;11238;48.730;11.566;2024-03-22T01:01:34;29.83;;;13.57;;
22144;SDS011;11238;48.730;11.566;2024-03-22T01:04:00;29.08;;;13.68;;
22144;SDS011;11238;48.730;11.566;2024-03-22T01:06:27;26.30;;;13.85;;
22144;SDS011;11238;48.730;11.566;2024-03-22T01:08:53;28.13;;;14.38;;
22144;SDS011;11238;48.730;11.566;2024-03-22T01:11:18;30.35;;;15.35;;
22144;SDS011;11238;48.730;11.566;2024-03-22T01:13:44;30.88;;;15.88;;
22144;SDS011;11238;48.730;11.566;2024-03-22T01:16:10;29.00;;;15.50;;
22144;SDS011;11238;48.730;11.566;2024-03-22T01:18:36;27.73;;;14.45;;
22144;SDS011;11238;48.730;11.566;2024-03-22T01:21:02;25.65;;;14.05;;
22144;SDS011;11238;48.730;11.566;2024-03-22T01:23:28;27.40;;;14.00;;
22144;SDS011;11238;48.730;11.566;2024-03-22T01:25:54;29.27;;;14.05;;
22144;SDS011;11238;48.730;11.566;2024-03-22T01:28:20;25.80;;;13.32;;
22144;SDS011;11238;48.730;11.566;2024-03-22T01:30:46;27.42;;;13.57;;
22144;SDS011;11238;48.730;11.566;2024-03-22T01:33:12;20.25;;;11.63;;
22144;SDS011;11238;48.730;11.566;2024-03-22T01:35:37;24.00;;;12.77;;
22144;SDS011;11238;48.730;11.566;2024-03-22T01:38:03;22.50;;;12.55;;
22144;SDS011;11238;48.730;11.566;2024-03-22T01:40:29;26.48;;;13.00;;
22144;SDS011;11238;48.730;11.566;2024-03-22T01:42:55;24.20;;;13.40;;
22144;SDS011;11238;48.730;11.566;2024-03-22T01:45:21;26.38;;;13.43;;
22144;SDS011;11238;48.730;11.566;2024-03-22T01:47:49;25.70;;;13.77;;
22144;SDS011;11238;48.730;11.566;2024-03-22T01:50:17;26.42;;;14.02;;
22144;SDS011;11238;48.730;11.566;2024-03-22T01:52:43;26.15;;;13.73;;
22144;SDS011;11238;48.730;11.566;2024-03-22T01:55:09;22.42;;;12.57;;
22144;SDS011;11238;48.730;11.566;2024-03-22T01:57:35;24.35;;;12.10;;
22144;SDS011;11238;48.730;11.566;2024-03-22T02:00:02;24.83;;;12.10;;
22144;SDS011;11238;48.730;11.566;2024-03-22T02:02:28;23.23;;;11.73;;
22144;SDS011;11238;48.730;11.566;2024-03-22T02:04:54;23.10;;;11.95;;
22144;SDS011;11238;48.730;11.566;2024-03-22T02:07:21;22.30;;;12.73;;
22144;SDS011;11238;48.730;11.566;2024-03-22T02:09:47;24.20;;;12.52;;
22144;SDS011;11238;48.730;11.566;2024-03-22T02:12:13;23.58;;;13.32;;
22144;SDS011;11238;48.730;11.566;2024-03-22T02:14:41;25.02;;;13.52;;
22144;SDS011;11238;48.730;11.566;2024-03-22T02:17:06;27.02;;;14.00;;
22144;SDS011;11238;48.730;11.566;2024-03-22T02:19:32;25.50;;;12.65;;
22144;SDS011;11238;48.730;11.566;2024-03-22T02:21:58;23.23;;;12.57;;
22144;SDS011;11238;48.730;11.566;2024-03-22T02:24:24;24.58;;;12.38;;
22144;SDS011;11238;48.730;11.566;2024-03-22T02:26:50;21.30;;;11.60;;
22144;SDS011;11238;48.730;11.566;2024-03-22T02:29:17;22.75;;;13.20;;
22144;SDS011;11238;48.730;11.566;2024-03-22T02:31:42;25.58;;;12.45;;
22144;SDS011;11238;48.730;11.566;2024-03-22T02:34:08;19.90;;;11.30;;
22144;SDS011;11238;48.730;11.566;2024-03-22T02:36:34;20.95;;;11.40;;
22144;SDS011;11238;48.730;11.566;2024-03-22T02:39:01;23.45;;;11.95;;
22144;SDS011;11238;48.730;11.566;2024-03-22T02:41:27;25.67;;;11.35;;
22144;SDS011;11238;48.730;11.566;2024-03-22T02:43:53;18.40;;;10.20;;
22144;SDS011;11238;48.730;11.566;2024-03-22T02:46:18;17.90;;;10.48;;
22144;SDS011;11238;48.730;11.566;2024-03-22T02:48:44;20.00;;;10.50;;
22144;SDS011;11238;48.730;11.566;2024-03-22T02:51:10;17.83;;;9.98;;
22144;SDS011;11238;48.730;11.566;2024-03-22T02:53:36;18.67;;;10.35;;
22144;SDS011;11238;48.730;11.566;2024-03-22T02:56:01;18.10;;;10.52;;
22144;SDS011;11238;48.730;11.566;2024-03-22T02:58:27;20.92;;;10.75;;
22144;SDS011;11238;48.730;11.566;2024-03-22T03:00:53;19.20;;;9.88;;
22144;SDS011;11238;48.730;11.566;2024-03-22T03:03:19;24.33;;;9.52;;
22144;SDS011;11238;48.730;11.566;2024-03-22T03:05:45;12.93;;;7.97;;
22144;SDS011;11238;48.730;11.566;2024-03-22T03:08:11;9.50;;;6.43;;
22144;SDS011;11238;48.730;11.566;2024-03-22T03:10:37;15.52;;;8.10;;
22144;SDS011;11238;48.730;11.566;2024-03-22T03:13:05;12.13;;;8.05;;
22144;SDS011;11238;48.730;11.566;2024-03-22T03:15:31;12.10;;;8.23;;
22144;SDS011;11238;48.730;11.566;2024-03-22T03:17:57;12.82;;;7.45;;
22144;SDS011;11238;48.730;11.566;2024-03-22T03:20:23;17.90;;;9.13;;
22144;SDS011;11238;48.730;11.566;2024-03-22T03:22:51;18.13;;;9.60;;
22144;SDS011;11238;48.730;11.566;2024-03-22T03:25:16;18.58;;;9.43;;
22144;SDS011;11238;48.730;11.566;2024-03-22T03:27:42;18.15;;;9.65;;
22144;SDS011;11238;48.730;11.566;2024-03-22T03:30:08;17.30;;;9.40;;
22144;SDS011;11238;48.730;11.566;2024-03-22T03:32:34;18.55;;;9.93;;
22144;SDS011;11238;48.730;11.566;2024-03-22T03:35:00;16.52;;;9.30;;
22144;SDS011;11238;48.730;11.566;2024-03-22T03:37:26;17.20;;;9.52;;
22144;SDS011;11238;48.730;11.566;2024-03-22T03:39:52;16.55;;;10.02;;
22144;SDS011;11238;48.730;11.566;2024-03-22T03:42:18;15.85;;;9.15;;
22144;SDS011;11238;48.730;11.566;2024-03-22T03:44:43;15.93;;;8.88;;
22144;SDS011;11238;48.730;11.566;2024-03-22T03:47:09;15.50;;;8.80;;
22144;SDS011;11238;48.730;11.566;2024-03-22T03:49:35;14.65;;;8.77;;
22144;SDS011;11238;48.730;11.566;2024-03-22T03:52:01;20.92;;;10.38;;
22144;SDS011;11238;48.730;11.566;2024-03-22T03:54:27;18.58;;;9.68;;
22144;SDS011;11238;48.730;11.566;2024-03-22T03:56:53;16.85;;;9.52;;
22144;SDS011;11238;48.730;11.566;2024-03-22T03:59:20;17.77;;;10.15;;
22144;SDS011;11238;48.730;11.566;2024-03-22T04:01:46;16.08;;;9.85;;
22144;SDS011;11238;48.730;11.566;2024-03-22T04:04:12;20.85;;;10.40;;
22144;SDS011;11238;48.730;11.566;2024-03-22T04:06:38;19.85;;;10.07;;
22144;SDS011;11238;48.730;11.566;2024-03-22T04:09:04;20.55;;;10.98;;
22144;SDS011;11238;48.730;11.566;2024-03-22T04:11:31;19.63;;;9.88;;
22144;SDS011;11238;48.730;11.566;2024-03-22T04:13:57;17.25;;;9.93;;
22144;SDS011;11238;48.730;11.566;2024-03-22T04:16:22;20.50;;;10.40;;
22144;SDS011;11238;48.730;11.566;2024-03-22T04:18:48;21.70;;;11.00;;
22144;SDS011;11238;48.730;11.566;2024-03-22T04:21:14;23.50;;;12.43;;
22144;SDS011;11238;48.730;11.566;2024-03-22T04:23:40;20.30;;;10.88;;
22144;SDS011;11238;48.730;11.566;2024-03-22T04:26:06;22.15;;;11.82;;
22144;SDS011;11238;48.730;11.566;2024-03-22T04:28:33;20.65;;;10.73;;
22144;SDS011;11238;48.730;11.566;2024-03-22T04:33:33;19.75;;;10.07;;
22144;SDS011;11238;48.730;11.566;2024-03-22T04:36:00;20.88;;;10.73;;
22144;SDS011;11238;48.730;11.566;2024-03-22T04:38:26;20.23;;;11.02;;
22144;SDS011;11238;48.730;11.566;2024-03-22T04:40:52;25.92;;;11.38;;
22144;SDS011;11238;48.730;11.566;2024-03-22T04:43:25;21.00;;;11.10;;
22144;SDS011;11238;48.730;11.566;2024-03-22T04:45:52;22.33;;;12.13;;
22144;SDS011;11238;48.730;11.566;2024-03-22T04:48:18;25.05;;;12.90;;
22144;SDS011;11238;48.730;11.566;2024-03-22T04:50:49;29.02;;;12.95;;
22144;SDS011;11238;48.730;11.566;2024-03-22T04:53:16;24.27;;;12.35;;
22144;SDS011;11238;48.730;11.566;2024-03-22T04:55:42;21.15;;;10.95;;
22144;SDS011;11238;48.730;11.566;2024-03-22T04:58:13;21.73;;;11.18;;
22144;SDS011;11238;48.730;11.566;2024-03-22T05:00:40;23.38;;;11.50;;
22144;SDS011;11238;48.730;11.566;2024-03-22T05:03:06;22.40;;;11.57;;
22144;SDS011;11238;48.730;11.566;2024-03-22T05:05:33;22.92;;;12.15;;
22144;SDS011;11238;48.730;11.566;2024-03-22T05:07:59;26.73;;;11.40;;
22144;SDS011;11238;48.730;11.566;2024-03-22T05:10:26;25.55;;;11.20;;
22144;SDS011;11238;48.730;11.566;2024-03-22T05:12:52;19.55;;;11.18;;
22144;SDS011;11238;48.730;11.566;2024-03-22T05:15:17;19.08;;;10.45;;
22144;SDS011;11238;48.730;11.566;2024-03-22T05:17:43;19.75;;;10.52;;
22144;SDS011;11238;48.730;11.566;2024-03-22T05:20:09;19.88;;;10.52;;
22144;SDS011;11238;48.730;11.566;2024-03-22T05:22:39;19.80;;;10.02;;
22144;SDS011;11238;48.730;11.566;2024-03-22T05:25:05;19.88;;;11.15;;
22144;SDS011;11238;48.730;11.566;2024-03-22T05:27:31;18.33;;;9.95;;
22144;SDS011;11238;48.730;11.566;2024-03-22T05:29:58;19.65;;;9.88;;
22144;SDS011;11238;48.730;11.566;2024-03-22T05:32:24;15.32;;;9.13;;
22144;SDS011;11238;48.730;11.566;2024-03-22T05:34:51;18.02;;;10.25;;
22144;SDS011;11238;48.730;11.566;2024-03-22T05:37:17;19.85;;;10.35;;
22144;SDS011;11238;48.730;11.566;2024-03-22T05:39:44;16.30;;;9.57;;
22144;SDS011;11238;48.730;11.566;2024-03-22T05:42:09;16.70;;;9.00;;
22144;SDS011;11238;48.730;11.566;2024-03-22T05:44:35;14.27;;;9.40;;
22144;SDS011;11238;48.730;11.566;2024-03-22T05:47:01;15.10;;;8.98;;
22144;SDS011;11238;48.730;11.566;2024-03-22T05:49:27;15.00;;;9.23;;
22144;SDS011;11238;48.730;11.566;2024-03-22T05:51:54;16.48;;;9.43;;
22144;SDS011;11238;48.730;11.566;2024-03-22T05:54:20;18.60;;;9.88;;
22144;SDS011;11238;48.730;11.566;2024-03-22T05:56:46;15.88;;;9.07;;
22144;SDS011;11238;48.730;11.566;2024-03-22T05:59:12;16.90;;;9.68;;
22144;SDS011;11238;48.730;11.566;2024-03-22T06:01:38;15.73;;;9.20;;
22144;SDS011;11238;48.730;11.566;2024-03-22T06:04:04;16.02;;;8.98;;
22144;SDS011;11238;48.730;11.566;2024-03-22T06:06:34;15.15;;;8.90;;
22144;SDS011;11238;48.730;11.566;2024-03-22T06:09:01;17.55;;;9.40;;
22144;SDS011;11238;48.730;11.566;2024-03-22T06:11:34;18.48;;;9.35;;
22144;SDS011;11238;48.730;11.566;2024-03-22T06:14:00;15.50;;;8.93;;
22144;SDS011;11238;48.730;11.566;2024-03-22T06:16:26;18.83;;;8.35;;
22144;SDS011;11238;48.730;11.566;2024-03-22T06:18:52;13.95;;;8.63;;
22144;SDS011;11238;48.730;11.566;2024-03-22T06:21:17;16.42;;;9.10;;
22144;SDS011;11238;48.730;11.566;2024-03-22T06:23:51;15.27;;;8.52;;
22144;SDS011;11238;48.730;11.566;2024-03-22T06:26:18;16.00;;;8.77;;
22144;SDS011;11238;48.730;11.566;2024-03-22T06:28:44;14.65;;;8.57;;
22144;SDS011;11238;48.730;11.566;2024-03-22T06:31:10;16.55;;;9.13;;
22144;SDS011;11238;48.730;11.566;2024-03-22T06:33:36;14.52;;;8.05;;
22144;SDS011;11238;48.730;11.566;2024-03-22T06:36:02;13.80;;;8.65;;
22144;SDS011;11238;48.730;11.566;2024-03-22T06:38:29;14.93;;;8.70;;
22144;SDS011;11238;48.730;11.566;2024-03-22T06:40:54;15.05;;;8.75;;
22144;SDS011;11238;48.730;11.566;2024-03-22T06:43:21;14.75;;;8.35;;
22144;SDS011;11238;48.730;11.566;2024-03-22T06:45:47;21.70;;;9.88;;
22144;SDS011;11238;48.730;11.566;2024-03-22T06:48:13;15.82;;;9.40;;
22144;SDS011;11238;48.730;11.566;2024-03-22T06:50:41;18.65;;;10.13;;
22144;SDS011;11238;48.730;11.566;2024-03-22T06:53:07;17.13;;;9.88;;
22144;SDS011;11238;48.730;11.566;2024-03-22T06:55:35;18.73;;;10.52;;
22144;SDS011;11238;48.730;11.566;2024-03-22T06:58:01;17.05;;;9.48;;
22144;SDS011;11238;48.730;11.566;2024-03-22T07:00:27;25.30;;;11.23;;
22144;SDS011;11238;48.730;11.566;2024-03-22T07:02:54;20.23;;;10.70;;
22144;SDS011;11238;48.730;11.566;2024-03-22T07:05:23;22.40;;;11.88;;
22144;SDS011;11238;48.730;11.566;2024-03-22T07:07:49;26.63;;;12.98;;
22144;SDS011;11238;48.730;11.566;2024-03-22T07:10:15;25.60;;;12.60;;
22144;SDS011;11238;48.730;11.566;2024-03-22T07:12:41;25.42;;;12.32;;
22144;SDS011;11238;48.730;11.566;2024-03-22T07:15:08;20.67;;;11.20;;
22144;SDS011;11238;48.730;11.566;2024-03-22T07:17:34;26.80;;;11.85;;
22144;SDS011;11238;48.730;11.566;2024-03-22T07:20:01;23.70;;;13.05;;
22144;SDS011;11238;48.730;11.566;2024-03-22T07:22:27;26.17;;;13.15;;
22144;SDS011;11238;48.730;11.566;2024-03-22T07:24:54;24.58;;;13.23;;
22144;SDS011;11238;48.730;11.566;2024-03-22T07:27:21;31.40;;;14.18;;
22144;SDS011;11238;48.730;11.566;2024-03-22T07:29:47;29.83;;;13.93;;
22144;SDS011;11238;48.730;11.566;2024-03-22T07:32:15;32.60;;;15.45;;
22144;SDS011;11238;48.730;11.566;2024-03-22T07:34:49;33.97;;;15.45;;
22144;SDS011;11238;48.730;11.566;2024-03-22T07:37:22;29.08;;;15.98;;
22144;SDS011;11238;48.730;11.566;2024-03-22T07:39:48;31.65;;;16.55;;
22144;SDS011;11238;48.730;11.566;2024-03-22T07:42:14;29.60;;;16.27;;
22144;SDS011;11238;48.730;11.566;2024-03-22T07:44:40;31.50;;;16.40;;
22144;SDS011;11238;48.730;11.566;2024-03-22T07:47:06;35.55;;;17.67;;
22144;SDS011;11238;48.730;11.566;2024-03-22T07:49:50;33.58;;;16.80;;
22144;SDS011;11238;48.730;11.566;2024-03-22T07:52:24;35.35;;;16.85;;
22144;SDS011;11238;48.730;11.566;2024-03-22T07:54:50;34.38;;;16.58;;
22144;SDS011;11238;48.730;11.566;2024-03-22T07:57:16;34.42;;;17.20;;
22144;SDS011;11238;48.730;11.566;2024-03-22T07:59:43;33.83;;;17.90;;
22144;SDS011;11238;48.730;11.566;2024-03-22T08:02:09;31.33;;;17.83;;
22144;SDS011;11238;48.730;11.566;2024-03-22T08:04:36;33.20;;;16.80;;
22144;SDS011;11238;48.730;11.566;2024-03-22T08:07:02;31.55;;;16.58;;
22144;SDS011;11238;48.730;11.566;2024-03-22T08:09:28;35.08;;;17.85;;
22144;SDS011;11238;48.730;11.566;2024-03-22T08:11:54;38.67;;;18.25;;
22144;SDS011;11238;48.730;11.566;2024-03-22T08:14:20;34.95;;;17.33;;
22144;SDS011;11238;48.730;11.566;2024-03-22T08:16:46;35.42;;;17.52;;
22144;SDS011;11238;48.730;11.566;2024-03-22T08:19:12;32.08;;;17.05;;
22144;SDS011;11238;48.730;11.566;2024-03-22T08:21:38;33.22;;;18.35;;
22144;SDS011;11238;48.730;11.566;2024-03-22T08:24:04;33.83;;;17.17;;
22144;SDS011;11238;48.730;11.566;2024-03-22T08:26:30;32.60;;;17.02;;
22144;SDS011;11238;48.730;11.566;2024-03-22T08:28:56;36.47;;;17.95;;
22144;SDS011;11238;48.730;11.566;2024-03-22T08:31:23;33.13;;;18.23;;
22144;SDS011;11238;48.730;11.566;2024-03-22T08:33:51;28.73;;;16.65;;
22144;SDS011;11238;48.730;11.566;2024-03-22T08:36:17;31.40;;;18.10;;
22144;SDS011;11238;48.730;11.566;2024-03-22T08:38:43;37.35;;;17.48;;
22144;SDS011;11238;48.730;11.566;2024-03-22T08:41:10;34.08;;;17.48;;
22144;SDS011;11238;48.730;11.566;2024-03-22T08:43:36;31.85;;;18.15;;
22144;SDS011;11238;48.730;11.566;2024-03-22T08:46:02;29.52;;;16.75;;
22144;SDS011;11238;48.730;11.566;2024-03-22T08:48:28;35.95;;;16.98;;
22144;SDS011;11238;48.730;11.566;2024-03-22T08:50:54;29.80;;;17.52;;
22144;SDS011;11238;48.730;11.566;2024-03-22T08:53:20;31.05;;;18.02;;
22144;SDS011;11238;48.730;11.566;2024-03-22T08:55:46;33.35;;;17.90;;
22144;SDS011;11238;48.730;11.566;2024-03-22T08:58:13;32.25;;;17.23;;
22144;SDS011;11238;48.730;11.566;2024-03-22T09:00:43;31.75;;;18.00;;
22144;SDS011;11238;48.730;11.566;2024-03-22T09:03:09;31.92;;;17.65;;
22144;SDS011;11238;48.730;11.566;2024-03-22T09:05:35;29.02;;;17.40;;
22144;SDS011;11238;48.730;11.566;2024-03-22T09:08:02;34.15;;;18.33;;
22144;SDS011;11238;48.730;11.566;2024-03-22T09:10:29;30.27;;;17.05;;
22144;SDS011;11238;48.730;11.566;2024-03-22T09:12:55;29.58;;;17.63;;
22144;SDS011;11238;48.730;11.566;2024-03-22T09:15:21;32.20;;;18.27;;
22144;SDS011;11238;48.730;11.566;2024-03-22T09:17:47;30.20;;;17.33;;
22144;SDS011;11238;48.730;11.566;2024-03-22T09:20:13;32.45;;;17.15;;
22144;SDS011;11238;48.730;11.566;2024-03-22T09:22:39;29.00;;;17.33;;
22144;SDS011;11238;48.730;11.566;2024-03-22T09:25:06;29.45;;;16.02;;
22144;SDS011;11238;48.730;11.566;2024-03-22T09:27:32;35.30;;;16.73;;
22144;SDS011;11238;48.730;11.566;2024-03-22T09:29:58;30.23;;;16.70;;
22144;SDS011;11238;48.730;11.566;2024-03-22T09:32:24;30.95;;;15.88;;
22144;SDS011;11238;48.730;11.566;2024-03-22T09:34:52;26.42;;;14.88;;
22144;SDS011;11238;48.730;11.566;2024-03-22T09:37:18;22.52;;;13.88;;
22144;SDS011;11238;48.730;11.566;2024-03-22T09:39:43;28.92;;;15.60;;
22144;SDS011;11238;48.730;11.566;2024-03-22T09:42:11;29.42;;;14.85;;
22144;SDS011;11238;48.730;11.566;2024-03-22T09:44:41;21.30;;;13.90;;
22144;SDS011;11238;48.730;11.566;2024-03-22T09:47:17;24.10;;;14.25;;
22144;SDS011;11238;48.730;11.566;2024-03-22T09:49:43;23.77;;;13.77;;
22144;SDS011;11238;48.730;11.566;2024-03-22T09:52:14;22.77;;;14.10;;
22144;SDS011;11238;48.730;11.566;2024-03-22T09:54:44;23.00;;;14.30;;
22144;SDS011;11238;48.730;11.566;2024-03-22T09:57:14;23.05;;;13.98;;
22144;SDS011;11238;48.730;11.566;2024-03-22T09:59:44;26.95;;;14.57;;
22144;SDS011;11238;48.730;11.566;2024-03-22T10:02:12;24.33;;;14.07;;
22144;SDS011;11238;48.730;11.566;2024-03-22T10:04:40;19.67;;;12.80;;
22144;SDS011;11238;48.730;11.566;2024-03-22T10:07:06;20.15;;;12.65;;
22144;SDS011;11238;48.730;11.566;2024-03-22T10:09:33;23.35;;;14.23;;
22144;SDS011;11238;48.730;11.566;2024-03-22T10:12:00;22.60;;;14.18;;
22144;SDS011;11238;48.730;11.566;2024-03-22T10:14:26;23.17;;;13.18;;
22144;SDS011;11238;48.730;11.566;2024-03-22T10:16:55;19.50;;;12.23;;
22144;SDS011;11238;48.730;11.566;2024-03-22T10:19:21;25.40;;;13.18;;
22144;SDS011;11238;48.730;11.566;2024-03-22T10:21:59;21.90;;;12.30;;
22144;SDS011;11238;48.730;11.566;2024-03-22T10:24:25;21.70;;;12.80;;
22144;SDS011;11238;48.730;11.566;2024-03-22T10:26:51;24.00;;;13.23;;
22144;SDS011;11238;48.730;11.566;2024-03-22T10:29:17;19.20;;;11.98;;
22144;SDS011;11238;48.730;11.566;2024-03-22T10:31:43;22.88;;;13.75;;
22144;SDS011;11238;48.730;11.566;2024-03-22T10:34:09;22.30;;;12.73;;
22144;SDS011;11238;48.730;11.566;2024-03-22T10:36:38;20.45;;;12.50;;
22144;SDS011;11238;48.730;11.566;2024-03-22T10:39:05;22.88;;;13.60;;
22144;SDS011;11238;48.730;11.566;2024-03-22T10:41:32;20.48;;;12.43;;
22144;SDS011;11238;48.730;11.566;2024-03-22T10:43:57;21.92;;;12.80;;
22144;SDS011;11238;48.730;11.566;2024-03-22T10:46:27;20.80;;;12.35;;
22144;SDS011;11238;48.730;11.566;2024-03-22T10:48:55;19.55;;;12.93;;
22144;SDS011;11238;48.730;11.566;2024-03-22T10:51:25;17.15;;;11.27;;
22144;SDS011;11238;48.730;11.566;2024-03-22T10:53:53;16.85;;;11.18;;
22144;SDS011;11238;48.730;11.566;2024-03-22T10:56:21;19.73;;;11.85;;
22144;SDS011;11238;48.730;11.566;2024-03-22T10:58:48;20.73;;;12.00;;
22144;SDS011;11238;48.730;11.566;2024-03-22T11:01:21;19.67;;;12.45;;
22144;SDS011;11238;48.730;11.566;2024-03-22T11:03:48;19.15;;;11.18;;
22144;SDS011;11238;48.730;11.566;2024-03-22T11:06:17;19.63;;;11.38;;
22144;SDS011;11238;48.730;11.566;2024-03-22T11:08:48;16.48;;;11.15;;
22144;SDS011;11238;48.730;11.566;2024-03-22T11:11:17;14.38;;;9.45;;
22144;SDS011;11238;48.730;11.566;2024-03-22T11:13:46;16.13;;;10.45;;
22144;SDS011;11238;48.730;11.566;2024-03-22T11:16:15;16.52;;;10.68;;
22144;SDS011;11238;48.730;11.566;2024-03-22T11:18:42;14.25;;;9.70;;
22144;SDS011;11238;48.730;11.566;2024-03-22T11:21:08;14.52;;;8.85;;
22144;SDS011;11238;48.730;11.566;2024-03-22T11:23:34;14.13;;;9.63;;
22144;SDS011;11238;48.730;11.566;2024-03-22T11:26:02;14.40;;;8.85;;
22144;SDS011;11238;48.730;11.566;2024-03-22T11:28:29;15.02;;;9.63;;
22144;SDS011;11238;48.730;11.566;2024-03-22T11:30:56;17.63;;;8.55;;
22144;SDS011;11238;48.730;11.566;2024-03-22T11:33:22;12.23;;;7.80;;
22144;SDS011;11238;48.730;11.566;2024-03-22T11:35:48;17.55;;;8.80;;
22144;SDS011;11238;48.730;11.566;2024-03-22T11:38:17;14.23;;;7.65;;
22144;SDS011;11238;48.730;11.566;2024-03-22T11:40:43;17.38;;;8.93;;
22144;SDS011;11238;48.730;11.566;2024-03-22T11:43:10;17.30;;;9.13;;
22144;SDS011;11238;48.730;11.566;2024-03-22T11:45:39;13.40;;;8.73;;
22144;SDS011;11238;48.730;11.566;2024-03-22T11:48:05;12.30;;;8.35;;
22144;SDS011;11238;48.730;11.566;2024-03-22T11:50:32;11.27;;;8.10;;
22144;SDS011;11238;48.730;11.566;2024-03-22T11:52:58;13.63;;;7.95;;
22144;SDS011;11238;48.730;11.566;2024-03-22T11:55:26;14.73;;;8.18;;
22144;SDS011;11238;48.730;11.566;2024-03-22T11:57:53;11.85;;;6.90;;
22144;SDS011;11238;48.730;11.566;2024-03-22T12:00:18;9.13;;;5.82;;
22144;SDS011;11238;48.730;11.566;2024-03-22T12:02:45;10.27;;;6.18;;
22144;SDS011;11238;48.730;11.566;2024-03-22T12:05:11;10.68;;;6.68;;
22144;SDS011;11238;48.730;11.566;2024-03-22T12:07:37;10.63;;;6.35;;
22144;SDS011;11238;48.730;11.566;2024-03-22T12:10:04;10.32;;;5.68;;
22144;SDS011;11238;48.730;11.566;2024-03-22T12:12:30;9.60;;;7.07;;
22144;SDS011;11238;48.730;11.566;2024-03-22T12:14:56;11.05;;;5.95;;
22144;SDS011;11238;48.730;11.566;2024-03-22T12:17:22;11.77;;;6.50;;
22144;SDS011;11238;48.730;11.566;2024-03-22T12:19:48;10.85;;;6.68;;
22144;SDS011;11238;48.730;11.566;2024-03-22T12:22:13;10.80;;;6.18;;
22144;SDS011;11238;48.730;11.566;2024-03-22T12:24:39;11.10;;;6.00;;
22144;SDS011;11238;48.730;11.566;2024-03-22T12:27:05;9.32;;;6.05;;
22144;SDS011;11238;48.730;11.566;2024-03-22T12:29:34;10.85;;;6.50;;
22144;SDS011;11238;48.730;11.566;2024-03-22T12:32:04;9.00;;;6.57;;
22144;SDS011;11238;48.730;11.566;2024-03-22T12:34:30;8.75;;;6.22;;
22144;SDS011;11238;48.730;11.566;2024-03-22T12:36:57;8.93;;;5.65;;
22144;SDS011;11238;48.730;11.566;2024-03-22T12:39:24;9.77;;;5.95;;
22144;SDS011;11238;48.730;11.566;2024-03-22T12:41:50;8.85;;;4.68;;
22144;SDS011;11238;48.730;11.566;2024-03-22T12:44:16;8.52;;;5.20;;
22144;SDS011;11238;48.730;11.566;2024-03-22T12:46:41;7.60;;;5.00;;
22144;SDS011;11238;48.730;11.566;2024-03-22T12:49:09;7.88;;;5.30;;
22144;SDS011;11238;48.730;11.566;2024-03-22T12:51:36;9.20;;;4.82;;
22144;SDS011;11238;48.730;11.566;2024-03-22T12:54:03;10.07;;;4.70;;
22144;SDS011;11238;48.730;11.566;2024-03-22T12:56:30;10.45;;;5.40;;
22144;SDS011;11238;48.730;11.566;2024-03-22T12:58:56;9.27;;;5.90;;
22144;SDS011;11238;48.730;11.566;2024-03-22T13:01:21;8.48;;;5.45;;
22144;SDS011;11238;48.730;11.566;2024-03-22T13:03:47;7.18;;;5.32;;
22144;SDS011;11238;48.730;11.566;2024-03-22T13:06:13;10.38;;;5.18;;
22144;SDS011;11238;48.730;11.566;2024-03-22T13:08:39;6.80;;;4.93;;
22144;SDS011;11238;48.730;11.566;2024-03-22T13:11:05;9.23;;;5.82;;
22144;SDS011;11238;48.730;11.566;2024-03-22T13:13:34;9.20;;;5.57;;
22144;SDS011;11238;48.730;11.566;2024-03-22T13:16:00;8.52;;;6.10;;
22144;SDS011;11238;48.730;11.566;2024-03-22T13:18:30;7.63;;;5.32;;
22144;SDS011;11238;48.730;11.566;2024-03-22T13:21:14;11.02;;;6.18;;
22144;SDS011;11238;48.730;11.566;2024-03-22T13:26:06;7.70;;;5.80;;
22144;SDS011;11238;48.730;11.566;2024-03-22T13:28:32;9.95;;;6.10;;
22144;SDS011;11238;48.730;11.566;2024-03-22T13:31:01;9.25;;;5.85;;
22144;SDS011;11238;48.730;11.566;2024-03-22T13:33:29;8.18;;;5.35;;
22144;SDS011;11238;48.730;11.566;2024-03-22T13:35:55;8.93;;;4.97;;
22144;SDS011;11238;48.730;11.566;2024-03-22T13:38:22;7.63;;;5.57;;
22144;SDS011;11238;48.730;11.566;2024-03-22T13:40:55;10.77;;;5.57;;
22144;SDS011;11238;48.730;11.566;2024-03-22T13:45:51;9.70;;;5.72;;
22144;SDS011;11238;48.730;11.566;2024-03-22T13:48:21;9.90;;;5.87;;
22144;SDS011;11238;48.730;11.566;2024-03-22T13:50:53;7.53;;;5.25;;
22144;SDS011;11238;48.730;11.566;2024-03-22T13:53:20;8.07;;;5.97;;
22144;SDS011;11238;48.730;11.566;2024-03-22T13:55:49;9.13;;;5.90;;
22144;SDS011;11238;48.730;11.566;2024-03-22T13:58:18;10.93;;;6.43;;
22144;SDS011;11238;48.730;11.566;2024-03-22T14:00:43;9.13;;;6.05;;
22144;SDS011;11238;48.730;11.566;2024-03-22T14:03:10;9.43;;;6.13;;
22144;SDS011;11238;48.730;11.566;2024-03-22T14:05:35;10.48;;;5.85;;
22144;SDS011;11238;48.730;11.566;2024-03-22T14:08:01;9.02;;;5.72;;
22144;SDS011;11238;48.730;11.566;2024-03-22T14:10:29;9.18;;;5.50;;
22144;SDS011;11238;48.730;11.566;2024-03-22T14:12:57;8.57;;;5.57;;
22144;SDS011;11238;48.730;11.566;2024-03-22T14:15:23;8.75;;;5.18;;
22144;SDS011;11238;48.730;11.566;2024-03-22T14:17:52;9.32;;;6.10;;
22144;SDS011;11238;48.730;11.566;2024-03-22T14:20:18;9.40;;;5.90;;